sensor_id;sensor_type;location;lat;lon;timestamp;pressure;altitude;pressure_sealevel;temperature;humidity
18527;BME280;9393;42.158;24.748;2023-05-11T00:00:17;100027.75;;;12.20;79.03
18527;BME280;9393;42.158;24.748;2023-05-11T00:03:22;100027.88;;;12.18;79.36
18527;BME280;9393;42.158;24.748;2023-05-11T00:06:27;100025.50;;;12.34;78.88
18527;BME280;9393;42.158;24.748;2023-05-11T00:09:31;100033.69;;;12.02;80.46
18527;BME280;9393;42.158;24.748;2023-05-11T00:12:36;100033.94;;;12.09;80.28
18527;BME280;9393;42.158;24.748;2023-05-11T00:15:39;100037.00;;;11.85;81.55
18527;BME280;9393;42.158;24.748;2023-05-11T00:18:43;100041.00;;;11.89;81.41
18527;BME280;9393;42.158;24.748;2023-05-11T00:21:47;100044.97;;;11.93;81.22
18527;BME280;9393;42.158;24.748;2023-05-11T00:24:51;100042.28;;;11.45;83.40
18527;BME280;9393;42.158;24.748;2023-05-11T00:27:56;100048.50;;;11.63;82.77
18527;BME280;9393;42.158;24.748;2023-05-11T00:30:59;100044.50;;;11.69;83.04
18527;BME280;9393;42.158;24.748;2023-05-11T00:34:03;100037.00;;;11.95;81.60
18527;BME280;9393;42.158;24.748;2023-05-11T00:37:07;100045.50;;;11.78;82.51
18527;BME280;9393;42.158;24.748;2023-05-11T00:40:11;100054.75;;;11.72;82.68
18527;BME280;9393;42.158;24.748;2023-05-11T00:43:16;100052.81;;;12.03;81.83
18527;BME280;9393;42.158;24.748;2023-05-11T00:46:20;100049.72;;;11.69;82.89
18527;BME280;9393;42.158;24.748;2023-05-11T00:49:24;100052.34;;;11.59;83.64
18527;BME280;9393;42.158;24.748;2023-05-11T00:52:29;100053.63;;;11.75;83.13
18527;BME280;9393;42.158;24.748;2023-05-11T00:55:32;100051.44;;;11.99;82.10
18527;BME280;9393;42.158;24.748;2023-05-11T00:58:38;100050.19;;;11.93;81.86
18527;BME280;9393;42.158;24.748;2023-05-11T01:01:42;100055.44;;;12.03;81.67
18527;BME280;9393;42.158;24.748;2023-05-11T01:04:46;100051.84;;;11.85;82.62
18527;BME280;9393;42.158;24.748;2023-05-11T01:07:58;100053.06;;;11.81;82.85
18527;BME280;9393;42.158;24.748;2023-05-11T01:11:10;100048.53;;;12.11;81.45
18527;BME280;9393;42.158;24.748;2023-05-11T01:14:20;100055.69;;;12.00;82.31
18527;BME280;9393;42.158;24.748;2023-05-11T01:17:34;100046.75;;;11.74;83.08
18527;BME280;9393;42.158;24.748;2023-05-11T01:20:42;100063.38;;;11.73;83.55
18527;BME280;9393;42.158;24.748;2023-05-11T01:24:22;100063.06;;;11.66;83.51
18527;BME280;9393;42.158;24.748;2023-05-11T01:27:42;100070.25;;;11.74;83.57
18527;BME280;9393;42.158;24.748;2023-05-11T01:30:53;100065.94;;;11.53;84.91
18527;BME280;9393;42.158;24.748;2023-05-11T01:34:02;100065.78;;;11.55;84.71
18527;BME280;9393;42.158;24.748;2023-05-11T01:37:10;100066.69;;;11.84;83.29
18527;BME280;9393;42.158;24.748;2023-05-11T01:40:17;100071.94;;;12.13;81.59
18527;BME280;9393;42.158;24.748;2023-05-11T01:43:25;100057.75;;;12.15;81.29
18527;BME280;9393;42.158;24.748;2023-05-11T01:46:33;100066.97;;;12.20;81.24
18527;BME280;9393;42.158;24.748;2023-05-11T01:49:39;100065.00;;;12.31;80.62
18527;BME280;9393;42.158;24.748;2023-05-11T01:52:46;100060.38;;;12.15;81.58
18527;BME280;9393;42.158;24.748;2023-05-11T01:55:50;100061.06;;;12.27;80.72
18527;BME280;9393;42.158;24.748;2023-05-11T01:58:56;100061.47;;;12.03;81.27
18527;BME280;9393;42.158;24.748;2023-05-11T02:02:03;100061.34;;;12.05;81.69
18527;BME280;9393;42.158;24.748;2023-05-11T02:05:08;100064.72;;;11.67;82.93
18527;BME280;9393;42.158;24.748;2023-05-11T02:08:14;100057.34;;;11.82;82.30
18527;BME280;9393;42.158;24.748;2023-05-11T02:11:21;100053.59;;;11.65;83.18
18527;BME280;9393;42.158;24.748;2023-05-11T02:14:28;100052.66;;;11.95;81.52
18527;BME280;9393;42.158;24.748;2023-05-11T02:17:38;100050.06;;;11.95;81.81
18527;BME280;9393;42.158;24.748;2023-05-11T02:20:43;100063.53;;;11.71;82.46
18527;BME280;9393;42.158;24.748;2023-05-11T02:23:49;100057.56;;;11.69;83.21
18527;BME280;9393;42.158;24.748;2023-05-11T02:26:54;100053.66;;;11.35;84.22
18527;BME280;9393;42.158;24.748;2023-05-11T02:29:59;100051.53;;;11.69;83.57
18527;BME280;9393;42.158;24.748;2023-05-11T02:33:06;100056.72;;;11.40;83.98
18527;BME280;9393;42.158;24.748;2023-05-11T02:36:13;100057.94;;;11.45;83.95
18527;BME280;9393;42.158;24.748;2023-05-11T02:39:20;100065.03;;;11.74;82.95
18527;BME280;9393;42.158;24.748;2023-05-11T02:42:26;100059.13;;;11.72;83.17
18527;BME280;9393;42.158;24.748;2023-05-11T02:45:33;100058.75;;;11.36;84.83
18527;BME280;9393;42.158;24.748;2023-05-11T02:48:43;100056.78;;;11.09;85.82
18527;BME280;9393;42.158;24.748;2023-05-11T02:51:51;100060.97;;;11.41;84.47
18527;BME280;9393;42.158;24.748;2023-05-11T02:54:59;100057.69;;;11.48;84.32
18527;BME280;9393;42.158;24.748;2023-05-11T02:58:04;100074.47;;;11.55;83.97
18527;BME280;9393;42.158;24.748;2023-05-11T03:01:09;100066.03;;;11.33;84.83
18527;BME280;9393;42.158;24.748;2023-05-11T03:04:16;100072.78;;;11.45;84.46
18527;BME280;9393;42.158;24.748;2023-05-11T03:07:21;100074.06;;;11.60;83.57
18527;BME280;9393;42.158;24.748;2023-05-11T03:10:26;100078.44;;;11.50;84.03
18527;BME280;9393;42.158;24.748;2023-05-11T03:13:31;100071.56;;;11.49;83.91
18527;BME280;9393;42.158;24.748;2023-05-11T03:16:38;100080.28;;;11.19;85.05
18527;BME280;9393;42.158;24.748;2023-05-11T03:19:46;100075.47;;;11.14;85.55
18527;BME280;9393;42.158;24.748;2023-05-11T03:22:51;100068.47;;;10.85;86.95
18527;BME280;9393;42.158;24.748;2023-05-11T03:25:57;100077.78;;;11.08;86.13
18527;BME280;9393;42.158;24.748;2023-05-11T03:29:01;100075.53;;;11.03;86.71
18527;BME280;9393;42.158;24.748;2023-05-11T03:32:06;100080.25;;;11.09;86.40
18527;BME280;9393;42.158;24.748;2023-05-11T03:35:15;100086.50;;;10.97;87.31
18527;BME280;9393;42.158;24.748;2023-05-11T03:38:21;100087.59;;;11.35;85.15
18527;BME280;9393;42.158;24.748;2023-05-11T03:41:28;100088.78;;;11.11;86.31
18527;BME280;9393;42.158;24.748;2023-05-11T03:44:35;100082.13;;;10.98;86.83
18527;BME280;9393;42.158;24.748;2023-05-11T03:47:40;100083.38;;;11.03;86.74
18527;BME280;9393;42.158;24.748;2023-05-11T03:50:48;100089.31;;;11.05;86.64
18527;BME280;9393;42.158;24.748;2023-05-11T03:53:52;100084.69;;;11.19;86.64
18527;BME280;9393;42.158;24.748;2023-05-11T03:56:56;100079.63;;;10.96;87.78
18527;BME280;9393;42.158;24.748;2023-05-11T04:00:00;100085.25;;;11.32;86.19
18527;BME280;9393;42.158;24.748;2023-05-11T04:03:05;100089.72;;;11.10;86.29
18527;BME280;9393;42.158;24.748;2023-05-11T04:06:11;100093.19;;;11.21;86.15
18527;BME280;9393;42.158;24.748;2023-05-11T04:09:15;100090.78;;;10.68;87.71
18527;BME280;9393;42.158;24.748;2023-05-11T04:12:19;100091.38;;;11.11;86.45
18527;BME280;9393;42.158;24.748;2023-05-11T04:15:22;100096.53;;;11.32;85.28
18527;BME280;9393;42.158;24.748;2023-05-11T04:18:26;100098.94;;;11.14;85.84
18527;BME280;9393;42.158;24.748;2023-05-11T04:21:32;100096.59;;;11.11;86.27
18527;BME280;9393;42.158;24.748;2023-05-11T04:24:37;100094.63;;;11.34;85.00
18527;BME280;9393;42.158;24.748;2023-05-11T04:27:41;100092.16;;;11.82;82.54
18527;BME280;9393;42.158;24.748;2023-05-11T04:30:45;100100.94;;;11.32;84.93
18527;BME280;9393;42.158;24.748;2023-05-11T04:33:49;100102.63;;;11.52;84.03
18527;BME280;9393;42.158;24.748;2023-05-11T04:36:55;100108.50;;;11.84;82.97
18527;BME280;9393;42.158;24.748;2023-05-11T04:40:01;100107.44;;;12.15;81.49
18527;BME280;9393;42.158;24.748;2023-05-11T04:43:11;100106.19;;;12.29;80.77
18527;BME280;9393;42.158;24.748;2023-05-11T04:46:16;100100.69;;;12.23;79.77
18527;BME280;9393;42.158;24.748;2023-05-11T04:49:20;100101.78;;;11.72;82.16
18527;BME280;9393;42.158;24.748;2023-05-11T04:52:26;100099.63;;;11.56;83.77
18527;BME280;9393;42.158;24.748;2023-05-11T04:55:29;100095.56;;;11.73;83.53
18527;BME280;9393;42.158;24.748;2023-05-11T04:58:34;100107.28;;;11.88;82.37
18527;BME280;9393;42.158;24.748;2023-05-11T05:01:38;100111.75;;;11.57;83.74
18527;BME280;9393;42.158;24.748;2023-05-11T05:04:42;100099.72;;;12.04;82.31
18527;BME280;9393;42.158;24.748;2023-05-11T05:07:48;100110.41;;;11.73;82.88
18527;BME280;9393;42.158;24.748;2023-05-11T05:10:52;100108.94;;;11.99;82.15
18527;BME280;9393;42.158;24.748;2023-05-11T05:13:56;100107.13;;;12.47;80.65
18527;BME280;9393;42.158;24.748;2023-05-11T05:16:59;100115.56;;;12.03;82.29
18527;BME280;9393;42.158;24.748;2023-05-11T05:20:05;100116.78;;;12.08;82.34
18527;BME280;9393;42.158;24.748;2023-05-11T05:23:10;100106.84;;;12.31;81.70
18527;BME280;9393;42.158;24.748;2023-05-11T05:26:14;100111.84;;;12.05;82.42
18527;BME280;9393;42.158;24.748;2023-05-11T05:29:20;100109.50;;;12.22;81.96
18527;BME280;9393;42.158;24.748;2023-05-11T05:32:25;100110.59;;;12.94;79.14
18527;BME280;9393;42.158;24.748;2023-05-11T05:35:29;100111.75;;;12.82;78.05
18527;BME280;9393;42.158;24.748;2023-05-11T05:38:34;100115.34;;;12.72;78.87
18527;BME280;9393;42.158;24.748;2023-05-11T05:41:39;100122.16;;;13.01;77.94
18527;BME280;9393;42.158;24.748;2023-05-11T05:44:44;100116.97;;;12.73;78.83
18527;BME280;9393;42.158;24.748;2023-05-11T05:47:48;100124.72;;;12.55;79.67
18527;BME280;9393;42.158;24.748;2023-05-11T05:50:54;100129.09;;;12.93;78.04
18527;BME280;9393;42.158;24.748;2023-05-11T05:53:59;100136.91;;;13.02;77.42
18527;BME280;9393;42.158;24.748;2023-05-11T05:57:04;100133.50;;;13.29;76.47
18527;BME280;9393;42.158;24.748;2023-05-11T06:00:09;100127.06;;;13.24;76.22
18527;BME280;9393;42.158;24.748;2023-05-11T06:03:13;100130.66;;;13.23;74.89
18527;BME280;9393;42.158;24.748;2023-05-11T06:06:17;100132.09;;;13.35;74.65
18527;BME280;9393;42.158;24.748;2023-05-11T06:09:23;100137.13;;;13.73;73.35
18527;BME280;9393;42.158;24.748;2023-05-11T06:12:27;100134.09;;;13.50;73.47
18527;BME280;9393;42.158;24.748;2023-05-11T06:15:32;100129.53;;;13.52;73.22
18527;BME280;9393;42.158;24.748;2023-05-11T06:18:43;100131.28;;;13.61;73.11
18527;BME280;9393;42.158;24.748;2023-05-11T06:21:47;100128.41;;;13.55;73.70
18527;BME280;9393;42.158;24.748;2023-05-11T06:24:52;100138.88;;;14.00;72.48
18527;BME280;9393;42.158;24.748;2023-05-11T06:27:56;100132.69;;;14.01;71.91
18527;BME280;9393;42.158;24.748;2023-05-11T06:31:01;100130.16;;;13.64;72.49
18527;BME280;9393;42.158;24.748;2023-05-11T06:34:09;100135.75;;;14.32;70.23
18527;BME280;9393;42.158;24.748;2023-05-11T06:37:13;100127.22;;;14.47;67.21
18527;BME280;9393;42.158;24.748;2023-05-11T06:40:25;100119.81;;;14.43;67.66
18527;BME280;9393;42.158;24.748;2023-05-11T06:43:29;100130.09;;;14.62;66.16
18527;BME280;9393;42.158;24.748;2023-05-11T06:46:36;100123.16;;;14.17;67.15
18527;BME280;9393;42.158;24.748;2023-05-11T06:49:40;100131.09;;;14.61;66.34
18527;BME280;9393;42.158;24.748;2023-05-11T06:52:44;100126.47;;;15.06;64.44
18527;BME280;9393;42.158;24.748;2023-05-11T06:55:50;100133.84;;;15.45;63.82
18527;BME280;9393;42.158;24.748;2023-05-11T06:58:54;100131.84;;;15.64;62.69
18527;BME280;9393;42.158;24.748;2023-05-11T07:01:58;100137.50;;;15.44;63.68
18527;BME280;9393;42.158;24.748;2023-05-11T07:05:02;100126.09;;;15.01;64.43
18527;BME280;9393;42.158;24.748;2023-05-11T07:08:06;100122.34;;;14.35;66.74
18527;BME280;9393;42.158;24.748;2023-05-11T07:11:12;100126.22;;;14.66;65.30
18527;BME280;9393;42.158;24.748;2023-05-11T07:14:16;100113.16;;;14.74;64.83
18527;BME280;9393;42.158;24.748;2023-05-11T07:17:20;100108.66;;;15.26;64.01
18527;BME280;9393;42.158;24.748;2023-05-11T07:20:24;100117.22;;;15.70;62.61
18527;BME280;9393;42.158;24.748;2023-05-11T07:23:28;100115.63;;;15.43;62.14
18527;BME280;9393;42.158;24.748;2023-05-11T07:26:34;100118.47;;;15.50;61.92
18527;BME280;9393;42.158;24.748;2023-05-11T07:29:38;100119.84;;;15.70;59.07
18527;BME280;9393;42.158;24.748;2023-05-11T07:32:41;100119.59;;;15.89;58.53
18527;BME280;9393;42.158;24.748;2023-05-11T07:35:45;100125.41;;;15.59;59.02
18527;BME280;9393;42.158;24.748;2023-05-11T07:38:49;100126.72;;;15.63;59.71
18527;BME280;9393;42.158;24.748;2023-05-11T07:41:54;100119.06;;;15.36;60.76
18527;BME280;9393;42.158;24.748;2023-05-11T07:44:58;100129.50;;;15.28;61.65
18527;BME280;9393;42.158;24.748;2023-05-11T07:48:02;100123.66;;;15.42;61.28
18527;BME280;9393;42.158;24.748;2023-05-11T07:51:06;100119.38;;;15.83;60.53
18527;BME280;9393;42.158;24.748;2023-05-11T07:54:10;100107.56;;;15.37;61.75
18527;BME280;9393;42.158;24.748;2023-05-11T07:57:15;100103.22;;;15.53;62.05
18527;BME280;9393;42.158;24.748;2023-05-11T08:00:20;100113.78;;;15.78;62.42
18527;BME280;9393;42.158;24.748;2023-05-11T08:03:24;100118.25;;;15.43;63.09
18527;BME280;9393;42.158;24.748;2023-05-11T08:06:28;100110.91;;;15.55;62.67
18527;BME280;9393;42.158;24.748;2023-05-11T08:09:32;100117.88;;;15.64;62.61
18527;BME280;9393;42.158;24.748;2023-05-11T08:12:38;100120.66;;;15.54;63.56
18527;BME280;9393;42.158;24.748;2023-05-11T08:15:42;100115.25;;;15.64;62.10
18527;BME280;9393;42.158;24.748;2023-05-11T08:18:46;100116.75;;;15.33;63.45
18527;BME280;9393;42.158;24.748;2023-05-11T08:21:50;100110.47;;;14.92;63.87
18527;BME280;9393;42.158;24.748;2023-05-11T08:24:54;100115.06;;;15.24;63.44
18527;BME280;9393;42.158;24.748;2023-05-11T08:27:59;100123.88;;;15.48;62.95
18527;BME280;9393;42.158;24.748;2023-05-11T08:31:03;100116.59;;;15.84;62.38
18527;BME280;9393;42.158;24.748;2023-05-11T08:34:08;100127.97;;;16.01;60.80
18527;BME280;9393;42.158;24.748;2023-05-11T08:37:15;100124.19;;;16.03;60.61
18527;BME280;9393;42.158;24.748;2023-05-11T08:40:19;100113.16;;;15.84;60.30
18527;BME280;9393;42.158;24.748;2023-05-11T08:43:26;100117.59;;;15.91;59.93
18527;BME280;9393;42.158;24.748;2023-05-11T08:46:34;100125.44;;;15.67;60.29
18527;BME280;9393;42.158;24.748;2023-05-11T08:49:38;100115.00;;;15.99;59.96
18527;BME280;9393;42.158;24.748;2023-05-11T08:52:42;100111.38;;;16.08;60.43
18527;BME280;9393;42.158;24.748;2023-05-11T08:55:47;100113.38;;;16.06;60.36
18527;BME280;9393;42.158;24.748;2023-05-11T08:58:54;100113.63;;;15.71;61.19
18527;BME280;9393;42.158;24.748;2023-05-11T09:02:00;100114.66;;;16.10;60.08
18527;BME280;9393;42.158;24.748;2023-05-11T09:05:05;100112.34;;;16.07;59.23
18527;BME280;9393;42.158;24.748;2023-05-11T09:08:10;100113.69;;;16.44;58.85
18527;BME280;9393;42.158;24.748;2023-05-11T09:11:15;100107.94;;;16.56;58.10
18527;BME280;9393;42.158;24.748;2023-05-11T09:14:20;100103.66;;;16.72;58.03
18527;BME280;9393;42.158;24.748;2023-05-11T09:17:27;100095.53;;;16.97;56.52
18527;BME280;9393;42.158;24.748;2023-05-11T09:20:33;100098.16;;;16.97;55.85
18527;BME280;9393;42.158;24.748;2023-05-11T09:23:37;100095.75;;;17.27;55.64
18527;BME280;9393;42.158;24.748;2023-05-11T09:26:41;100085.00;;;17.75;54.74
18527;BME280;9393;42.158;24.748;2023-05-11T09:29:46;100078.53;;;17.78;53.89
18527;BME280;9393;42.158;24.748;2023-05-11T09:32:54;100079.16;;;17.49;53.90
18527;BME280;9393;42.158;24.748;2023-05-11T09:35:58;100062.75;;;17.70;53.69
18527;BME280;9393;42.158;24.748;2023-05-11T09:39:04;100061.06;;;18.22;52.25
18527;BME280;9393;42.158;24.748;2023-05-11T09:42:11;100066.06;;;17.72;52.82
18527;BME280;9393;42.158;24.748;2023-05-11T09:45:33;100057.25;;;17.56;53.46
18527;BME280;9393;42.158;24.748;2023-05-11T09:48:38;100065.75;;;17.66;53.19
18527;BME280;9393;42.158;24.748;2023-05-11T09:51:41;100058.34;;;18.07;52.72
18527;BME280;9393;42.158;24.748;2023-05-11T09:54:46;100062.94;;;18.13;51.51
18527;BME280;9393;42.158;24.748;2023-05-11T09:57:52;100066.25;;;18.53;50.75
18527;BME280;9393;42.158;24.748;2023-05-11T10:00:59;100058.25;;;18.01;51.95
18527;BME280;9393;42.158;24.748;2023-05-11T10:04:03;100056.44;;;18.39;51.69
18527;BME280;9393;42.158;24.748;2023-05-11T10:07:26;100051.94;;;17.64;52.48
18527;BME280;9393;42.158;24.748;2023-05-11T10:10:32;100054.59;;;17.79;52.56
18527;BME280;9393;42.158;24.748;2023-05-11T10:13:36;100054.97;;;17.76;52.27
18527;BME280;9393;42.158;24.748;2023-05-11T10:16:43;100051.09;;;17.64;52.42
18527;BME280;9393;42.158;24.748;2023-05-11T10:19:48;100041.88;;;17.60;52.82
18527;BME280;9393;42.158;24.748;2023-05-11T10:22:53;100042.84;;;17.67;53.05
18527;BME280;9393;42.158;24.748;2023-05-11T10:25:57;100041.72;;;17.84;52.41
18527;BME280;9393;42.158;24.748;2023-05-11T10:29:02;100035.78;;;17.29;53.24
18527;BME280;9393;42.158;24.748;2023-05-11T10:32:09;100025.44;;;17.58;52.44
18527;BME280;9393;42.158;24.748;2023-05-11T10:35:13;100023.50;;;17.44;52.99
18527;BME280;9393;42.158;24.748;2023-05-11T10:38:17;100023.56;;;17.89;52.03
18527;BME280;9393;42.158;24.748;2023-05-11T10:41:40;100027.03;;;18.04;51.47
18527;BME280;9393;42.158;24.748;2023-05-11T10:45:13;100038.47;;;18.20;51.39
18527;BME280;9393;42.158;24.748;2023-05-11T10:48:47;100033.31;;;18.03;50.91
18527;BME280;9393;42.158;24.748;2023-05-11T10:52:19;100014.72;;;18.20;50.50
18527;BME280;9393;42.158;24.748;2023-05-11T10:55:36;100020.56;;;18.30;50.56
18527;BME280;9393;42.158;24.748;2023-05-11T11:02:29;100013.78;;;18.79;49.53
18527;BME280;9393;42.158;24.748;2023-05-11T11:05:35;100021.34;;;18.53;50.81
18527;BME280;9393;42.158;24.748;2023-05-11T11:08:54;100012.53;;;18.38;50.06
18527;BME280;9393;42.158;24.748;2023-05-11T11:12:08;100004.25;;;18.26;49.75
18527;BME280;9393;42.158;24.748;2023-05-11T11:15:12;100013.28;;;18.46;49.34
18527;BME280;9393;42.158;24.748;2023-05-11T11:18:20;100004.44;;;18.25;49.03
18527;BME280;9393;42.158;24.748;2023-05-11T11:21:44;100000.78;;;18.26;49.76
18527;BME280;9393;42.158;24.748;2023-05-11T11:24:49;99993.97;;;19.04;48.15
18527;BME280;9393;42.158;24.748;2023-05-11T11:27:55;99985.72;;;19.64;47.25
18527;BME280;9393;42.158;24.748;2023-05-11T11:31:22;99989.88;;;19.38;47.56
18527;BME280;9393;42.158;24.748;2023-05-11T11:34:36;99982.47;;;18.61;48.20
18527;BME280;9393;42.158;24.748;2023-05-11T11:38:02;99981.31;;;19.36;46.74
18527;BME280;9393;42.158;24.748;2023-05-11T11:41:07;99984.91;;;19.85;45.58
18527;BME280;9393;42.158;24.748;2023-05-11T11:44:20;99974.94;;;20.15;43.59
18527;BME280;9393;42.158;24.748;2023-05-11T11:47:24;99974.78;;;20.16;43.87
18527;BME280;9393;42.158;24.748;2023-05-11T11:50:28;99961.38;;;20.59;42.93
18527;BME280;9393;42.158;24.748;2023-05-11T11:54:00;99956.03;;;20.46;43.26
18527;BME280;9393;42.158;24.748;2023-05-11T12:00:46;99968.97;;;19.57;44.94
18527;BME280;9393;42.158;24.748;2023-05-11T12:04:07;99959.78;;;19.39;45.72
18527;BME280;9393;42.158;24.748;2023-05-11T12:07:14;99951.69;;;19.04;46.15
18527;BME280;9393;42.158;24.748;2023-05-11T12:10:21;99946.94;;;18.79;46.81
18527;BME280;9393;42.158;24.748;2023-05-11T12:13:25;99941.34;;;18.88;47.20
18527;BME280;9393;42.158;24.748;2023-05-11T12:16:29;99937.34;;;18.92;45.85
18527;BME280;9393;42.158;24.748;2023-05-11T12:19:34;99938.16;;;19.14;46.25
18527;BME280;9393;42.158;24.748;2023-05-11T12:22:38;99932.22;;;19.27;45.21
18527;BME280;9393;42.158;24.748;2023-05-11T12:25:43;99935.47;;;19.43;45.39
18527;BME280;9393;42.158;24.748;2023-05-11T12:28:47;99928.34;;;19.65;44.63
18527;BME280;9393;42.158;24.748;2023-05-11T12:31:52;99921.13;;;19.38;44.79
18527;BME280;9393;42.158;24.748;2023-05-11T12:34:58;99909.81;;;19.65;44.60
18527;BME280;9393;42.158;24.748;2023-05-11T12:38:02;99910.38;;;20.16;43.49
18527;BME280;9393;42.158;24.748;2023-05-11T12:41:08;99901.69;;;19.94;43.71
18527;BME280;9393;42.158;24.748;2023-05-11T12:44:14;99894.94;;;19.64;44.48
18527;BME280;9393;42.158;24.748;2023-05-11T12:47:18;99901.28;;;19.70;43.76
18527;BME280;9393;42.158;24.748;2023-05-11T12:50:22;99888.69;;;19.99;42.93
18527;BME280;9393;42.158;24.748;2023-05-11T12:53:26;99878.09;;;19.99;42.25
18527;BME280;9393;42.158;24.748;2023-05-11T12:56:43;99879.66;;;20.22;42.70
18527;BME280;9393;42.158;24.748;2023-05-11T12:59:48;99873.75;;;20.60;41.74
18527;BME280;9393;42.158;24.748;2023-05-11T13:02:53;99879.19;;;20.46;42.19
18527;BME280;9393;42.158;24.748;2023-05-11T13:06:05;99877.66;;;20.24;42.89
18527;BME280;9393;42.158;24.748;2023-05-11T13:09:09;99873.66;;;19.30;44.30
18527;BME280;9393;42.158;24.748;2023-05-11T13:12:16;99878.25;;;19.63;44.35
18527;BME280;9393;42.158;24.748;2023-05-11T13:15:21;99870.25;;;19.57;43.48
18527;BME280;9393;42.158;24.748;2023-05-11T13:18:25;99866.84;;;19.91;42.89
18527;BME280;9393;42.158;24.748;2023-05-11T13:21:30;99860.50;;;20.20;42.03
18527;BME280;9393;42.158;24.748;2023-05-11T13:24:34;99860.63;;;20.39;42.15
18527;BME280;9393;42.158;24.748;2023-05-11T13:27:40;99854.78;;;20.50;41.71
18527;BME280;9393;42.158;24.748;2023-05-11T13:30:44;99864.69;;;20.07;42.28
18527;BME280;9393;42.158;24.748;2023-05-11T13:33:49;99868.63;;;19.56;43.09
18527;BME280;9393;42.158;24.748;2023-05-11T13:36:53;99862.81;;;19.25;42.95
18527;BME280;9393;42.158;24.748;2023-05-11T13:39:57;99850.84;;;19.71;42.80
18527;BME280;9393;42.158;24.748;2023-05-11T13:43:03;99845.56;;;20.05;41.02
18527;BME280;9393;42.158;24.748;2023-05-11T13:46:07;99848.59;;;20.37;40.94
18527;BME280;9393;42.158;24.748;2023-05-11T13:49:11;99847.22;;;20.13;41.58
18527;BME280;9393;42.158;24.748;2023-05-11T13:52:15;99835.03;;;20.18;41.40
18527;BME280;9393;42.158;24.748;2023-05-11T13:55:19;99848.34;;;19.21;43.46
18527;BME280;9393;42.158;24.748;2023-05-11T13:58:24;99848.97;;;19.23;43.67
18527;BME280;9393;42.158;24.748;2023-05-11T14:01:28;99847.28;;;19.15;43.74
18527;BME280;9393;42.158;24.748;2023-05-11T14:04:32;99841.81;;;19.16;44.08
18527;BME280;9393;42.158;24.748;2023-05-11T14:07:36;99847.19;;;19.44;43.60
18527;BME280;9393;42.158;24.748;2023-05-11T14:10:49;99846.84;;;19.33;43.35
18527;BME280;9393;42.158;24.748;2023-05-11T14:13:55;99843.56;;;19.09;44.36
18527;BME280;9393;42.158;24.748;2023-05-11T14:16:59;99832.97;;;19.52;43.68
18527;BME280;9393;42.158;24.748;2023-05-11T14:20:03;99835.72;;;19.65;43.14
18527;BME280;9393;42.158;24.748;2023-05-11T14:23:08;99835.25;;;19.34;43.12
18527;BME280;9393;42.158;24.748;2023-05-11T14:26:11;99838.03;;;19.26;43.03
18527;BME280;9393;42.158;24.748;2023-05-11T14:29:17;99840.22;;;19.01;43.83
18527;BME280;9393;42.158;24.748;2023-05-11T14:32:21;99837.47;;;19.30;43.45
18527;BME280;9393;42.158;24.748;2023-05-11T14:35:25;99847.09;;;19.16;43.66
18527;BME280;9393;42.158;24.748;2023-05-11T14:38:29;99842.03;;;18.79;44.01
18527;BME280;9393;42.158;24.748;2023-05-11T14:41:33;99845.84;;;18.91;43.80
18527;BME280;9393;42.158;24.748;2023-05-11T14:44:38;99849.34;;;18.98;44.26
18527;BME280;9393;42.158;24.748;2023-05-11T14:47:43;99851.19;;;18.98;44.84
18527;BME280;9393;42.158;24.748;2023-05-11T14:50:47;99844.06;;;18.98;44.05
18527;BME280;9393;42.158;24.748;2023-05-11T14:53:50;99831.84;;;19.18;43.93
18527;BME280;9393;42.158;24.748;2023-05-11T14:56:54;99837.19;;;19.04;44.25
18527;BME280;9393;42.158;24.748;2023-05-11T15:00:02;99835.69;;;18.95;43.95
18527;BME280;9393;42.158;24.748;2023-05-11T15:03:06;99839.59;;;18.78;44.79
18527;BME280;9393;42.158;24.748;2023-05-11T15:06:12;99841.88;;;18.66;45.18
18527;BME280;9393;42.158;24.748;2023-05-11T15:09:22;99837.88;;;18.70;45.14
18527;BME280;9393;42.158;24.748;2023-05-11T15:12:26;99832.69;;;18.62;45.36
18527;BME280;9393;42.158;24.748;2023-05-11T15:15:32;99832.81;;;18.54;45.49
18527;BME280;9393;42.158;24.748;2023-05-11T15:18:36;99833.88;;;18.59;45.49
18527;BME280;9393;42.158;24.748;2023-05-11T15:21:42;99825.16;;;18.59;44.77
18527;BME280;9393;42.158;24.748;2023-05-11T15:24:45;99822.16;;;18.47;45.10
18527;BME280;9393;42.158;24.748;2023-05-11T15:27:49;99820.44;;;18.40;44.93
18527;BME280;9393;42.158;24.748;2023-05-11T15:30:54;99824.25;;;18.52;44.96
18527;BME280;9393;42.158;24.748;2023-05-11T15:33:58;99827.91;;;18.22;45.44
18527;BME280;9393;42.158;24.748;2023-05-11T15:37:03;99827.00;;;18.14;45.95
18527;BME280;9393;42.158;24.748;2023-05-11T15:40:08;99827.84;;;18.00;46.28
18527;BME280;9393;42.158;24.748;2023-05-11T15:43:12;99828.38;;;18.10;46.50
18527;BME280;9393;42.158;24.748;2023-05-11T15:46:17;99830.38;;;18.08;46.50
18527;BME280;9393;42.158;24.748;2023-05-11T15:49:21;99822.94;;;18.12;46.98
18527;BME280;9393;42.158;24.748;2023-05-11T15:52:25;99828.03;;;17.99;47.05
18527;BME280;9393;42.158;24.748;2023-05-11T15:55:29;99818.63;;;17.96;47.41
18527;BME280;9393;42.158;24.748;2023-05-11T15:58:33;99820.56;;;17.88;47.77
18527;BME280;9393;42.158;24.748;2023-05-11T16:01:38;99823.56;;;17.99;48.00
18527;BME280;9393;42.158;24.748;2023-05-11T16:04:42;99832.03;;;18.09;48.38
18527;BME280;9393;42.158;24.748;2023-05-11T16:07:46;99825.81;;;17.73;48.90
18527;BME280;9393;42.158;24.748;2023-05-11T16:10:50;99826.47;;;17.75;49.35
18527;BME280;9393;42.158;24.748;2023-05-11T16:13:54;99830.72;;;17.76;49.56
18527;BME280;9393;42.158;24.748;2023-05-11T16:17:00;99825.09;;;17.64;49.54
18527;BME280;9393;42.158;24.748;2023-05-11T16:20:05;99828.38;;;17.66;49.37
18527;BME280;9393;42.158;24.748;2023-05-11T16:23:10;99834.47;;;17.67;49.64